DMOIN EDDN-EDDN

Flight info

Callsign DMOIN
Flight time 0h 12m
Altitude
Route
Aircraft C172

Departure

Time 2026-05-04 18:57
Airport Nuremberg Airport (EDDN)

Arrival

Time 2026-05-04 19:10
Airport Nuremberg Airport (EDDN)
Time Latitude Longitude Altitude Speed Heading
2026-05-04 18:48 49.49433 11.07561 1021 ft 0 kts
2026-05-04 18:49 49.49441 11.07562 1021 ft 3 kts 355°
2026-05-04 18:49 49.49454 11.07548 1021 ft 5 kts 298°
2026-05-04 18:50 49.49464 11.07466 1021 ft 11 kts 280°
2026-05-04 18:50 49.49484 11.07363 1021 ft 10 kts 277°
2026-05-04 18:50 49.49489 11.07271 1021 ft 7 kts 274°
2026-05-04 18:50 49.49501 11.07210 1021 ft 5 kts 301°
2026-05-04 18:51 49.49542 11.07196 1021 ft 9 kts 15°
2026-05-04 18:51 49.49610 11.07212 1020 ft 10 kts 12°
2026-05-04 18:51 49.49634 11.07281 1020 ft 11 kts 98°
2026-05-04 18:51 49.49613 11.07477 1020 ft 21 kts 101°
2026-05-04 18:52 49.49593 11.07708 1021 ft 23 kts 97°
2026-05-04 18:52 49.49568 11.07951 1022 ft 22 kts 99°
2026-05-04 18:52 49.49545 11.08163 1023 ft 19 kts 102°
2026-05-04 18:52 49.49544 11.08336 1025 ft 14 kts 47°
2026-05-04 18:53 49.49609 11.08372 1028 ft 7 kts 39°
2026-05-04 18:53 49.49635 11.08429 1029 ft 7 kts 52°
2026-05-04 18:53 49.49667 11.08495 1030 ft 8 kts 53°
2026-05-04 18:53 49.49699 11.08551 1031 ft 0 kts 32°
2026-05-04 18:54 49.49698 11.08551 1031 ft 0 kts 32°
2026-05-04 18:54 49.49743 11.08569 1031 ft 12 kts
2026-05-04 18:54 49.49801 11.08503 1032 ft 3 kts 277°
2026-05-04 18:55 49.49801 11.08499 1031 ft 0 kts 278°
2026-05-04 18:55 49.49831 11.08211 1027 ft 52 kts 277°
2026-05-04 18:55 49.49859 11.07530 1142 ft 67 kts 260°
2026-05-04 18:56 49.49441 11.07165 1262 ft 82 kts 191°
2026-05-04 18:56 49.48831 11.07161 1395 ft 94 kts 156°
2026-05-04 18:56 49.48523 11.08069 1476 ft 107 kts 103°
2026-05-04 18:56 49.48218 11.09140 1630 ft 112 kts 141°
2026-05-04 18:57 49.47449 11.09119 1615 ft 125 kts 224°
2026-05-04 18:57 49.47257 11.07913 1647 ft 119 kts 294°
2026-05-04 18:57 49.47912 11.07362 1680 ft 117 kts 11°
2026-05-04 18:57 49.48439 11.08214 1654 ft 118 kts 79°
2026-05-04 18:58 49.48042 11.09245 1615 ft 126 kts 160°
2026-05-04 18:58 49.47204 11.09565 1562 ft 128 kts 166°
2026-05-04 18:58 49.46343 11.09934 1518 ft 126 kts 164°
2026-05-04 18:58 49.45535 11.09742 1520 ft 120 kts 227°
2026-05-04 18:59 49.45032 11.08730 1477 ft 120 kts 238°
2026-05-04 18:59 49.44361 11.08049 1502 ft 118 kts 175°
2026-05-04 18:59 49.44003 11.08967 1421 ft 117 kts 65°
2026-05-04 18:59 49.44654 11.09604 1380 ft 114 kts 20°
2026-05-04 19:00 49.45378 11.10065 1374 ft 111 kts 25°
2026-05-04 19:00 49.46103 11.10164 1332 ft 111 kts 324°
2026-05-04 19:00 49.46710 11.10016 1395 ft 107 kts 60°
2026-05-04 19:00 49.46601 11.11209 1420 ft 113 kts 101°
2026-05-04 19:01 49.46425 11.12351 1467 ft 101 kts 102°
2026-05-04 19:01 49.46265 11.13348 1451 ft 90 kts 97°
2026-05-04 19:01 49.46390 11.14264 1432 ft 90 kts 47°
2026-05-04 19:01 49.46977 11.14616 1485 ft 97 kts
2026-05-04 19:02 49.47652 11.14706 1701 ft 95 kts 359°
2026-05-04 19:02 49.48347 11.14640 1756 ft 102 kts 358°
2026-05-04 19:02 49.49072 11.14442 1721 ft 102 kts 338°
2026-05-04 19:02 49.49325 11.13522 1504 ft 111 kts 277°
2026-05-04 19:03 49.49420 11.12400 1410 ft 99 kts 280°
2026-05-04 19:03 49.49520 11.11353 1318 ft 102 kts 281°
2026-05-04 19:03 49.49624 11.10358 1192 ft 80 kts 281°
2026-05-04 19:03 49.49691 11.09577 1065 ft 68 kts 281°
2026-05-04 19:04 49.49763 11.08893 1037 ft 74 kts 281°
2026-05-04 19:04 49.49818 11.08068 1179 ft 84 kts 283°
2026-05-04 19:04 49.49911 11.07155 1358 ft 88 kts 280°
2026-05-04 19:04 49.49894 11.06239 1578 ft 92 kts 240°
2026-05-04 19:05 49.49234 11.05875 1606 ft 112 kts 188°
2026-05-04 19:05 49.48446 11.05989 1677 ft 119 kts 150°
2026-05-04 19:05 49.47984 11.07022 1739 ft 118 kts 105°
2026-05-04 19:05 49.47804 11.08269 1798 ft 121 kts 103°
2026-05-04 19:06 49.47576 11.09523 1880 ft 122 kts 101°
2026-05-04 19:06 49.47396 11.10788 1959 ft 118 kts 97°
2026-05-04 19:06 49.47238 11.11981 1988 ft 113 kts 96°
2026-05-04 19:06 49.47093 11.13114 1948 ft 106 kts 96°
2026-05-04 19:07 49.46993 11.14196 1908 ft 98 kts 94°
2026-05-04 19:07 49.46905 11.15197 1927 ft 96 kts 93°
2026-05-04 19:07 49.46866 11.16244 1931 ft 93 kts 61°
2026-05-04 19:07 49.47407 11.16685 1955 ft 98 kts
2026-05-04 19:08 49.48119 11.16722 1998 ft 106 kts 358°
2026-05-04 19:08 49.48838 11.16357 1966 ft 117 kts 321°
2026-05-04 19:08 49.49103 11.15144 1802 ft 120 kts 287°
2026-05-04 19:08 49.49255 11.13905 1626 ft 116 kts 283°
2026-05-04 19:09 49.49376 11.12676 1540 ft 115 kts 279°
2026-05-04 19:09 49.49497 11.11426 1409 ft 118 kts 282°
2026-05-04 19:09 49.49600 11.10386 1241 ft 84 kts 267°
2026-05-04 19:09 49.49690 11.09570 1058 ft 72 kts 283°
2026-05-04 19:10 49.49758 11.08989 1038 ft 41 kts 282°
2026-05-04 19:10 49.49768 11.08599 1033 ft 25 kts 238°
2026-05-04 19:10 49.49674 11.08506 1030 ft 13 kts 233°
2026-05-04 19:10 49.49649 11.08452 1029 ft 0 kts 235°
2026-05-04 19:11 49.49639 11.08433 1029 ft 6 kts 233°
2026-05-04 19:11 49.49584 11.08355 1027 ft 13 kts 190°
2026-05-04 19:11 49.49538 11.08257 1023 ft 15 kts 276°
2026-05-04 19:12 49.49564 11.07987 1022 ft 39 kts 277°
2026-05-04 19:12 49.49632 11.07217 1020 ft 9 kts 217°
2026-05-04 19:12 49.49558 11.07199 1021 ft 12 kts 188°
2026-05-04 19:13 49.49493 11.07254 1021 ft 18 kts 92°
2026-05-04 19:13 49.49468 11.07443 1021 ft 17 kts 105°
2026-05-04 19:13 49.49436 11.07570 1021 ft 2 kts 140°
2026-05-04 19:13 49.49430 11.07573 1021 ft 1 kts 154°
2026-05-04 19:14 49.49423 11.07565 1021 ft 2 kts 265°
2026-05-04 19:14 49.49427 11.07557 1021 ft 0 kts 345°